Time;durP1;ratioP1;P1;durP2;ratioP2;P2;SDS_P1;SDS_P2;PMS_P1;PMS_P2;Temp;Humidity;BMP_temperature;BMP_pressure;BME280_temperature;BME280_humidity;BME280_pressure;Samples;Min_cycle;Max_cycle;Signal;HPM_P1;HPM_P2
2023/08/14 00:00:37;;;;;;;5.00;4.23;;;;;;;25.56;63.54;97505.81;5092190;28;20186;-71
2023/08/14 00:03:03;;;;;;;4.10;3.80;;;;;;;25.53;63.59;97518.84;5096833;28;20220;-71
2023/08/14 00:05:28;;;;;;;4.30;3.40;;;;;;;25.54;63.97;97515.97;5094214;28;20194;-72
2023/08/14 00:07:53;;;;;;;6.77;4.17;;;;;;;25.53;63.50;97522.38;5092604;28;20903;-73
2023/08/14 00:10:19;;;;;;;6.13;3.90;;;;;;;25.51;63.65;97519.13;5091780;28;20331;-71
2023/08/14 00:12:44;;;;;;;11.60;4.57;;;;;;;25.49;63.62;97518.53;5084455;28;20178;-72
2023/08/14 00:15:10;;;;;;;4.27;3.97;;;;;;;25.48;63.84;97514.22;5091104;28;20204;-71
2023/08/14 00:17:35;;;;;;;5.10;4.23;;;;;;;25.46;63.57;97510.97;5095651;28;20209;-71
2023/08/14 00:20:01;;;;;;;4.10;3.70;;;;;;;25.43;63.87;97511.47;5087691;28;20617;-72
2023/08/14 00:22:27;;;;;;;4.40;4.00;;;;;;;25.44;64.08;97516.59;5099379;28;20181;-71
2023/08/14 00:24:52;;;;;;;4.60;3.83;;;;;;;25.47;64.02;97507.22;5090637;28;20200;-72
2023/08/14 00:27:17;;;;;;;6.53;3.90;;;;;;;25.54;63.94;97509.75;5091071;28;20208;-71
2023/08/14 00:29:43;;;;;;;5.50;4.40;;;;;;;25.54;63.75;97513.28;5091540;28;20254;-73
2023/08/14 00:32:08;;;;;;;11.17;4.33;;;;;;;25.50;63.89;97517.47;5095170;28;20185;-72
2023/08/14 00:34:34;;;;;;;5.80;3.90;;;;;;;25.48;63.62;97524.16;5091401;28;20181;-72
2023/08/14 00:36:59;;;;;;;4.33;3.93;;;;;;;25.48;63.97;97518.78;5087033;28;20313;-73
2023/08/14 00:39:25;;;;;;;7.13;4.30;;;;;;;25.47;64.13;97512.59;5097088;28;20269;-70
2023/08/14 00:41:50;;;;;;;13.73;4.20;;;;;;;25.44;64.13;97513.09;5096127;28;20257;-70
2023/08/14 00:44:15;;;;;;;4.27;3.60;;;;;;;25.43;64.23;97514.16;5084747;28;20292;-70
2023/08/14 00:46:41;;;;;;;8.00;4.30;;;;;;;25.46;64.20;97510.97;5084929;28;20240;-72
2023/08/14 00:49:08;;;;;;;4.27;3.87;;;;;;;25.48;64.21;97514.22;5089968;28;20268;-72
2023/08/14 00:51:34;;;;;;;4.30;3.90;;;;;;;25.47;63.88;97501.88;5102204;28;20197;-72
2023/08/14 00:54:00;;;;;;;7.23;4.20;;;;;;;25.41;64.28;97495.59;5093309;28;20996;-69
2023/08/14 00:56:28;;;;;;;4.53;4.00;;;;;;;25.39;64.18;97495.00;5085513;28;20451;-68
2023/08/14 00:58:53;;;;;;;8.70;3.80;;;;;;;25.43;64.32;97493.50;5084254;28;20299;-69
2023/08/14 01:01:19;;;;;;;7.63;4.40;;;;;;;25.43;64.39;97490.81;5112090;27;20533;-72
2023/08/14 01:03:44;;;;;;;4.73;4.23;;;;;;;25.44;64.31;97486.28;5093807;28;20204;-70
2023/08/14 01:06:10;;;;;;;9.70;4.47;;;;;;;25.42;64.52;97483.81;5090584;28;20300;-70
2023/08/14 01:08:35;;;;;;;4.63;4.23;;;;;;;25.42;64.59;97483.00;5085560;28;20215;-71
2023/08/14 01:11:12;;;;;;;6.17;4.00;;;;;;;25.44;64.42;97489.75;5089807;28;20204;-69
2023/08/14 01:13:59;;;;;;;5.13;3.90;;;;;;;25.45;64.47;97499.44;5092379;28;20303;-72
2023/08/14 01:16:30;;;;;;;3.80;3.50;;;;;;;25.51;64.82;97502.22;5085880;28;20589;-72
2023/08/14 01:18:55;;;;;;;5.83;4.20;;;;;;;25.56;64.71;97500.44;5095628;28;20916;-69
2023/08/14 01:22:15;;;;;;;5.73;4.13;;;;;;;25.60;64.74;97500.75;5090666;28;20434;-69
2023/08/14 01:24:59;;;;;;;4.40;3.87;;;;;;;25.64;64.48;97503.75;5082862;28;20209;-71
2023/08/14 01:27:24;;;;;;;4.30;3.93;;;;;;;25.64;64.39;97511.81;5075436;28;20441;-70
2023/08/14 01:29:56;;;;;;;6.30;4.50;;;;;;;25.63;64.39;97523.59;5078389;28;20488;-72
2023/08/14 01:32:21;;;;;;;6.90;3.90;;;;;;;25.59;64.99;97550.09;5093047;28;20182;-70
2023/08/14 01:34:47;;;;;;;5.70;4.30;;;;;;;25.56;65.80;97564.00;5090466;28;20514;-70
2023/08/14 01:37:19;;;;;;;5.37;4.83;;;;;;;25.52;66.04;97552.13;5097284;28;20205;-70
2023/08/14 01:39:48;;;;;;;8.30;4.20;;;;;;;25.60;65.63;97541.81;5089428;28;20674;-73
2023/08/14 01:42:32;;;;;;;9.23;4.33;;;;;;;25.59;66.03;97532.13;5084163;28;20442;-69
2023/08/14 01:45:01;;;;;;;6.00;4.73;;;;;;;25.64;66.10;97517.19;5088358;28;20459;-70
2023/08/14 01:47:28;;;;;;;5.73;4.37;;;;;;;25.65;65.98;97500.03;5090218;28;20983;-70
2023/08/14 01:49:53;;;;;;;5.20;4.67;;;;;;;25.56;66.64;97496.91;5088426;28;20434;-71
2023/08/14 01:52:19;;;;;;;4.43;4.03;;;;;;;25.61;66.39;97492.44;5087134;28;20440;-74
2023/08/14 01:54:44;;;;;;;7.00;4.37;;;;;;;25.62;66.57;97493.28;5086573;28;20181;-73
2023/08/14 01:57:10;;;;;;;7.87;4.77;;;;;;;25.57;66.01;97490.50;5082775;28;20686;-70
2023/08/14 01:59:41;;;;;;;5.60;4.23;;;;;;;25.54;66.03;97488.28;5084737;28;20237;-75
2023/08/14 02:02:06;;;;;;;5.60;3.90;;;;;;;25.50;65.68;97485.28;5080431;28;20182;-70
2023/08/14 02:04:32;;;;;;;3.77;3.40;;;;;;;25.54;65.58;97485.63;5089023;28;20461;-71
2023/08/14 02:06:57;;;;;;;7.20;3.60;;;;;;;25.54;66.07;97483.75;5088773;28;20293;-72
2023/08/14 02:09:23;;;;;;;6.20;3.50;;;;;;;25.52;65.45;97483.19;5094008;28;20217;-70
2023/08/14 02:11:48;;;;;;;3.40;3.10;;;;;;;25.48;65.75;97471.31;5086973;28;20296;-71
2023/08/14 02:14:14;;;;;;;3.70;3.40;;;;;;;25.42;65.99;97473.09;5087768;28;20220;-70
2023/08/14 02:16:39;;;;;;;6.83;3.03;;;;;;;25.38;66.19;97469.25;5095264;28;20227;-69
2023/08/14 02:19:05;;;;;;;3.57;3.20;;;;;;;25.44;66.58;97462.13;5092458;28;20189;-71
2023/08/14 02:21:30;;;;;;;3.90;2.93;;;;;;;25.50;66.04;97454.97;5090967;28;20967;-69
2023/08/14 02:23:55;;;;;;;3.83;2.90;;;;;;;25.51;66.11;97454.72;5096095;28;20286;-70
2023/08/14 02:26:21;;;;;;;4.00;2.97;;;;;;;25.52;66.17;97456.34;5087655;28;20603;-70
2023/08/14 02:28:46;;;;;;;3.93;3.37;;;;;;;25.51;65.94;97459.28;5088613;28;20276;-70
2023/08/14 02:31:12;;;;;;;5.07;3.23;;;;;;;25.44;66.48;97454.09;5088654;28;20193;-72
2023/08/14 02:33:37;;;;;;;3.73;3.37;;;;;;;25.41;66.53;97443.84;5090371;28;20242;-70
2023/08/14 02:36:03;;;;;;;5.33;3.00;;;;;;;25.42;66.70;97440.09;5088870;28;20228;-70
2023/08/14 02:38:30;;;;;;;4.00;3.33;;;;;;;25.41;66.90;97427.75;5096557;28;20678;-69
2023/08/14 02:40:55;;;;;;;3.40;2.90;;;;;;;25.38;66.78;97428.19;5091174;28;20287;-71
2023/08/14 02:43:21;;;;;;;7.67;2.90;;;;;;;25.30;66.93;97430.22;5091094;28;20543;-70
2023/08/14 02:45:46;;;;;;;6.20;3.20;;;;;;;25.21;66.82;97428.97;5089863;28;20301;-69
2023/08/14 02:48:12;;;;;;;2.87;2.63;;;;;;;25.07;66.83;97427.66;5089269;28;20200;-71
2023/08/14 02:50:37;;;;;;;4.40;2.60;;;;;;;25.04;67.15;97423.59;5084315;28;20189;-70
2023/08/14 02:53:03;;;;;;;5.00;2.47;;;;;;;24.99;67.18;97436.91;5094120;28;20691;-71
2023/08/14 02:55:28;;;;;;;3.20;2.90;;;;;;;24.95;67.24;97455.31;5087498;28;20715;-70
2023/08/14 02:57:54;;;;;;;4.10;2.60;;;;;;;24.93;66.95;97480.75;5093860;28;20192;-70
2023/08/14 03:00:20;;;;;;;5.03;2.57;;;;;;;24.96;67.04;97486.44;5089100;28;20711;-70
2023/08/14 03:02:46;;;;;;;4.70;2.70;;;;;;;25.00;66.86;97484.91;5088458;28;20265;-70
2023/08/14 03:05:12;;;;;;;3.43;2.80;;;;;;;25.03;66.48;97469.41;5092157;28;20420;-70
2023/08/14 03:07:38;;;;;;;3.13;2.60;;;;;;;24.99;66.70;97472.56;5088277;28;20444;-70
2023/08/14 03:10:04;;;;;;;7.63;2.80;;;;;;;25.03;66.52;97461.38;5085741;28;20799;-72
2023/08/14 03:12:29;;;;;;;3.27;2.97;;;;;;;25.06;66.21;97468.94;5091588;28;20216;-71
2023/08/14 03:14:55;;;;;;;3.97;2.93;;;;;;;25.01;66.29;97466.97;5087162;28;20215;-71
2023/08/14 03:17:20;;;;;;;3.77;2.50;;;;;;;24.97;66.04;97455.91;5079161;28;20677;-70
2023/08/14 03:19:45;;;;;;;7.37;3.23;;;;;;;24.94;66.53;97450.22;5086271;28;20189;-69
2023/08/14 03:22:11;;;;;;;3.00;2.70;;;;;;;24.89;66.46;97442.88;5096893;28;20177;-75
2023/08/14 03:24:36;;;;;;;5.70;3.07;;;;;;;24.85;66.86;97444.41;5092761;28;20209;-70
2023/08/14 03:27:02;;;;;;;4.93;3.23;;;;;;;24.83;67.00;97439.28;5080182;28;20216;-70
2023/08/14 03:29:28;;;;;;;4.10;2.90;;;;;;;24.86;67.32;97446.03;5085238;28;20711;-70
2023/08/14 03:31:53;;;;;;;5.70;3.03;;;;;;;24.76;67.12;97464.59;5086183;28;20190;-70
2023/08/14 03:34:19;;;;;;;4.90;2.70;;;;;;;24.72;66.70;97461.59;5086913;28;20261;-70
2023/08/14 03:36:44;;;;;;;5.67;2.80;;;;;;;24.73;67.27;97460.53;5083863;28;20210;-71
2023/08/14 03:39:10;;;;;;;5.60;2.90;;;;;;;24.73;66.87;97473.94;5079683;28;20213;-69
2023/08/14 03:41:35;;;;;;;3.60;2.57;;;;;;;24.79;66.65;97464.13;5085585;28;20186;-69
2023/08/14 03:44:01;;;;;;;4.43;2.90;;;;;;;24.80;66.82;97460.41;5086773;28;20244;-70
2023/08/14 03:46:26;;;;;;;17.00;3.53;;;;;;;24.80;66.47;97465.75;5087859;28;20212;-69
2023/08/14 03:48:52;;;;;;;3.17;2.80;;;;;;;24.83;66.59;97459.91;5087032;28;20197;-72
2023/08/14 03:51:17;;;;;;;4.17;2.90;;;;;;;24.82;66.66;97461.00;5086648;28;20189;-71
2023/08/14 03:53:42;;;;;;;3.73;2.80;;;;;;;24.82;66.46;97458.31;5083736;28;20255;-70
2023/08/14 03:56:08;;;;;;;4.40;3.00;;;;;;;24.78;66.23;97457.94;5087713;28;20243;-70
2023/08/14 03:58:33;;;;;;;8.50;3.00;;;;;;;24.77;66.43;97468.91;5087866;28;20189;-72
2023/08/14 04:00:59;;;;;;;4.27;2.53;;;;;;;24.79;66.65;97469.50;5086003;28;20187;-73
2023/08/14 04:03:24;;;;;;;3.37;3.07;;;;;;;24.81;66.03;97464.72;5085761;28;20626;-71
2023/08/14 04:05:59;;;;;;;5.03;2.63;;;;;;;24.79;66.25;97458.78;5088481;28;20217;-73
2023/08/14 04:08:24;;;;;;;5.77;2.90;;;;;;;24.75;65.90;97457.63;5082924;28;20277;-71
2023/08/14 04:10:55;;;;;;;3.23;2.87;;;;;;;24.74;66.00;97458.66;5077575;28;20779;-70
2023/08/14 04:13:21;;;;;;;5.73;3.07;;;;;;;24.72;66.11;97452.72;5086077;28;20895;-73
2023/08/14 04:15:46;;;;;;;6.47;3.00;;;;;;;24.69;66.11;97459.38;5087011;28;20502;-71
2023/08/14 04:18:12;;;;;;;4.40;2.80;;;;;;;24.65;65.99;97459.00;5081589;28;20189;-72
2023/08/14 04:20:37;;;;;;;3.73;3.20;;;;;;;24.57;65.83;97456.72;5090093;28;20178;-69
2023/08/14 04:23:03;;;;;;;3.60;2.90;;;;;;;24.59;65.98;97456.47;5088530;28;20205;-71
2023/08/14 04:25:28;;;;;;;3.57;3.27;;;;;;;24.57;66.07;97462.06;5083114;28;20193;-72
2023/08/14 04:27:54;;;;;;;3.20;2.90;;;;;;;24.58;66.18;97465.56;5084615;28;20206;-71
2023/08/14 04:30:20;;;;;;;9.40;2.73;;;;;;;24.57;65.90;97459.41;5079961;28;20192;-72
2023/08/14 04:32:45;;;;;;;4.47;2.43;;;;;;;24.53;65.80;97455.56;5087344;28;20655;-71
2023/08/14 04:35:11;;;;;;;8.13;3.23;;;;;;;24.56;65.91;97455.09;5082704;28;20190;-73
2023/08/14 04:37:36;;;;;;;7.00;3.60;;;;;;;24.55;66.18;97442.75;5090538;28;20317;-70
2023/08/14 04:40:04;;;;;;;10.07;3.70;;;;;;;24.49;65.66;97428.44;5086554;28;20236;-72
2023/08/14 04:42:30;;;;;;;8.03;3.30;;;;;;;24.47;66.18;97432.38;5094518;28;20552;-71
2023/08/14 04:44:56;;;;;;;4.13;2.70;;;;;;;24.47;65.90;97435.06;5089443;28;20630;-71
2023/08/14 04:47:21;;;;;;;3.83;2.63;;;;;;;24.50;66.03;97439.94;5088455;28;20870;-73
2023/08/14 04:49:47;;;;;;;5.27;2.50;;;;;;;24.55;66.14;97448.09;5093528;28;20227;-71
2023/08/14 04:52:12;;;;;;;2.50;2.30;;;;;;;24.60;65.95;97447.38;5090102;28;20201;-71
2023/08/14 04:54:37;;;;;;;3.40;2.90;;;;;;;24.64;65.94;97451.19;5094867;28;20290;-73
2023/08/14 04:57:03;;;;;;;3.10;2.80;;;;;;;24.69;65.50;97467.41;5094412;28;20233;-71
2023/08/14 04:59:29;;;;;;;3.87;2.63;;;;;;;24.71;65.12;97464.50;5081283;28;20269;-71
2023/08/14 05:01:54;;;;;;;3.73;2.70;;;;;;;24.68;64.84;97457.72;5092617;28;20181;-73
2023/08/14 05:04:19;;;;;;;3.47;2.90;;;;;;;24.61;65.03;97463.22;5091272;28;20201;-70
2023/08/14 05:06:45;;;;;;;5.87;3.10;;;;;;;24.54;65.44;97454.50;5092701;28;20211;-71
2023/08/14 05:09:10;;;;;;;2.70;2.50;;;;;;;24.53;65.50;97450.19;5089838;28;20702;-71
2023/08/14 05:11:36;;;;;;;3.57;2.90;;;;;;;24.53;65.20;97450.19;5087861;28;20198;-70
2023/08/14 05:14:01;;;;;;;6.23;3.50;;;;;;;24.56;65.49;97452.41;5090411;28;20261;-70
2023/08/14 05:16:27;;;;;;;3.63;2.63;;;;;;;24.60;65.30;97455.41;5092795;28;20200;-71
2023/08/14 05:18:52;;;;;;;2.90;2.47;;;;;;;24.67;65.35;97462.28;5091056;28;20189;-71
2023/08/14 05:21:18;;;;;;;3.20;2.57;;;;;;;24.75;65.61;97460.28;5089434;28;20705;-71
2023/08/14 05:23:43;;;;;;;10.00;2.60;;;;;;;24.75;64.86;97458.44;5092853;28;20238;-72
2023/08/14 05:26:08;;;;;;;2.53;2.17;;;;;;;24.75;64.84;97441.53;5087169;28;20240;-71
2023/08/14 05:28:34;;;;;;;5.50;3.00;;;;;;;24.79;64.91;97445.38;5086724;28;20185;-70
2023/08/14 05:30:59;;;;;;;3.10;2.80;;;;;;;24.86;65.38;97448.72;5086392;28;20677;-71
2023/08/14 05:33:25;;;;;;;7.03;2.70;;;;;;;24.94;65.53;97437.63;5087590;28;20210;-73
2023/08/14 05:35:50;;;;;;;2.60;2.40;;;;;;;24.98;65.07;97429.91;5090040;28;20191;-70
2023/08/14 05:38:16;;;;;;;2.83;2.60;;;;;;;25.01;64.79;97426.78;5091027;28;20247;-73
2023/08/14 05:40:41;;;;;;;4.47;2.80;;;;;;;25.00;64.41;97420.56;5089527;28;20268;-71
2023/08/14 05:43:13;;;;;;;4.90;2.83;;;;;;;24.96;64.78;97415.94;5089689;28;20754;-71
2023/08/14 05:45:43;;;;;;;2.40;2.20;;;;;;;25.00;64.60;97417.09;5080102;28;20189;-71
2023/08/14 05:48:09;;;;;;;5.40;2.77;;;;;;;25.03;64.22;97421.94;5083248;28;20417;-71
2023/08/14 05:50:35;;;;;;;2.90;2.30;;;;;;;25.04;64.77;97426.25;5080651;28;20432;-69
2023/08/14 05:53:05;;;;;;;2.43;2.23;;;;;;;25.04;64.95;97441.53;5083083;28;20473;-69
2023/08/14 05:55:38;;;;;;;5.00;2.43;;;;;;;25.02;64.65;97457.06;5086293;28;20520;-70
2023/08/14 05:58:04;;;;;;;3.57;2.23;;;;;;;25.00;64.85;97452.75;5084262;28;20433;-70
2023/08/14 06:00:30;;;;;;;4.50;2.60;;;;;;;25.03;64.85;97445.28;5090877;28;20418;-71
2023/08/14 06:02:56;;;;;;;2.83;2.60;;;;;;;25.06;64.54;97439.44;5080961;28;20453;-70
2023/08/14 06:05:22;;;;;;;5.10;2.87;;;;;;;24.99;64.58;97432.34;5088215;28;20186;-72
2023/08/14 06:07:48;;;;;;;4.83;2.93;;;;;;;24.98;65.06;97436.09;5087224;28;20342;-72
2023/08/14 06:10:14;;;;;;;3.30;2.80;;;;;;;25.02;64.94;97438.28;5078620;28;20433;-71
2023/08/14 06:12:40;;;;;;;3.20;2.70;;;;;;;25.04;64.80;97417.41;5090212;28;20468;-72
2023/08/14 06:15:06;;;;;;;2.67;2.47;;;;;;;25.06;64.50;97415.31;5089224;28;20424;-70
2023/08/14 06:17:32;;;;;;;3.17;2.70;;;;;;;25.06;64.94;97415.31;5089535;28;20217;-71
2023/08/14 06:19:58;;;;;;;2.47;2.27;;;;;;;24.97;64.81;97401.47;5089619;28;20193;-70
2023/08/14 06:22:24;;;;;;;4.43;2.50;;;;;;;24.92;64.60;97404.88;5089034;28;20177;-69
2023/08/14 06:24:49;;;;;;;8.30;2.60;;;;;;;24.94;64.62;97397.44;5089629;28;21049;-69
2023/08/14 06:27:15;;;;;;;3.73;2.50;;;;;;;24.95;64.63;97399.03;5086223;28;20201;-71
2023/08/14 06:29:40;;;;;;;5.07;2.67;;;;;;;24.97;64.22;97401.47;5084215;28;20684;-71
2023/08/14 06:32:06;;;;;;;4.90;3.00;;;;;;;25.05;64.76;97402.97;5091642;28;20231;-70
2023/08/14 06:34:31;;;;;;;3.17;2.80;;;;;;;25.13;64.90;97411.44;5082598;28;20849;-70
2023/08/14 06:36:57;;;;;;;2.63;2.43;;;;;;;25.33;65.13;97414.72;5084575;28;20281;-74
2023/08/14 06:39:22;;;;;;;2.30;2.10;;;;;;;25.56;65.03;97419.94;5088736;28;20192;-72
2023/08/14 06:41:48;;;;;;;7.37;2.60;;;;;;;25.81;64.02;97424.06;5087488;28;20573;-71
2023/08/14 06:44:13;;;;;;;3.80;2.57;;;;;;;26.01;62.69;97417.38;5086008;28;20209;-71
2023/08/14 06:46:39;;;;;;;4.30;2.73;;;;;;;26.14;61.83;97413.56;5086694;28;20197;-74
2023/08/14 06:49:04;;;;;;;5.20;2.70;;;;;;;26.22;61.27;97405.84;5084919;28;20650;-70
2023/08/14 06:51:31;;;;;;;6.87;2.90;;;;;;;26.33;61.41;97411.38;5085171;28;20232;-70
2023/08/14 06:53:57;;;;;;;4.37;2.80;;;;;;;26.48;61.34;97414.25;5086392;28;20181;-69
2023/08/14 06:56:22;;;;;;;3.50;2.60;;;;;;;26.57;60.49;97417.31;5082452;28;21114;-69
2023/08/14 06:58:48;;;;;;;3.13;2.80;;;;;;;26.58;60.32;97426.19;5084378;28;20182;-68
2023/08/14 07:01:14;;;;;;;5.20;2.93;;;;;;;26.75;60.36;97424.22;5082028;28;20694;-70
2023/08/14 07:03:39;;;;;;;5.73;3.00;;;;;;;26.80;59.63;97431.56;5081357;28;20197;-70
2023/08/14 07:06:04;;;;;;;5.77;3.07;;;;;;;26.88;59.61;97428.44;5080954;28;20562;-70
2023/08/14 07:08:30;;;;;;;6.87;2.70;;;;;;;27.02;59.88;97428.84;5088631;28;20284;-70
2023/08/14 07:10:55;;;;;;;4.87;3.10;;;;;;;26.96;59.75;97419.91;5079940;28;20264;-70
2023/08/14 07:13:21;;;;;;;3.10;2.90;;;;;;;27.05;59.35;97414.91;5085525;28;20184;-71
2023/08/14 07:15:47;;;;;;;3.40;3.10;;;;;;;27.22;59.51;97413.97;5088326;28;20185;-70
2023/08/14 07:18:17;;;;;;;7.17;2.97;;;;;;;27.41;59.59;97407.13;5089837;28;20434;-70
2023/08/14 07:20:44;;;;;;;2.87;2.60;;;;;;;27.49;58.29;97416.66;5087902;28;20213;-72
2023/08/14 07:23:10;;;;;;;3.93;2.70;;;;;;;27.48;57.00;97415.03;5088226;28;20487;-71
2023/08/14 07:25:35;;;;;;;4.53;3.00;;;;;;;27.51;56.35;97417.22;5089734;28;20499;-70
2023/08/14 07:28:01;;;;;;;2.47;2.27;;;;;;;27.71;56.36;97410.34;5088809;28;20178;-70
2023/08/14 07:30:26;;;;;;;5.53;2.30;;;;;;;27.71;56.20;97413.88;5088353;28;21948;-70
2023/08/14 07:32:52;;;;;;;5.20;2.67;;;;;;;27.91;56.08;97423.13;5087410;28;20728;-70
2023/08/14 07:35:17;;;;;;;4.10;2.30;;;;;;;28.11;55.90;97411.69;5090423;28;20177;-70
2023/08/14 07:37:43;;;;;;;6.37;2.20;;;;;;;28.22;55.71;97411.75;5093258;28;20212;-69
2023/08/14 07:40:09;;;;;;;3.53;2.60;;;;;;;28.44;56.12;97415.06;5095420;28;20662;-70
2023/08/14 07:42:34;;;;;;;4.57;1.90;;;;;;;28.66;55.88;97406.00;5088935;28;20189;-68
2023/08/14 07:45:00;;;;;;;4.70;2.63;;;;;;;28.87;55.82;97414.97;5083808;28;20469;-68
2023/08/14 07:47:25;;;;;;;6.03;2.17;;;;;;;29.09;55.51;97413.94;5083202;28;20201;-71
2023/08/14 07:49:51;;;;;;;3.67;2.43;;;;;;;29.26;54.27;97406.41;5081461;28;20186;-70
2023/08/14 07:52:16;;;;;;;3.53;2.10;;;;;;;29.41;53.09;97418.31;5082739;28;20331;-72
2023/08/14 07:54:42;;;;;;;2.27;2.07;;;;;;;29.51;52.79;97414.81;5081294;28;20190;-71
2023/08/14 07:57:07;;;;;;;6.40;2.20;;;;;;;29.69;52.95;97414.25;5083428;28;20368;-71
2023/08/14 07:59:33;;;;;;;5.83;2.30;;;;;;;29.77;52.23;97417.50;5080369;28;20229;-71
2023/08/14 08:01:58;;;;;;;5.47;2.30;;;;;;;29.82;52.07;97421.00;5081270;28;20193;-69
2023/08/14 08:04:23;;;;;;;3.03;2.03;;;;;;;29.89;50.82;97415.31;5083249;28;20206;-69
2023/08/14 08:06:49;;;;;;;2.20;2.00;;;;;;;30.04;51.83;97425.28;5089395;28;20773;-69
2023/08/14 08:09:14;;;;;;;4.20;2.20;;;;;;;30.10;51.50;97416.09;5080405;28;20682;-70
2023/08/14 08:11:40;;;;;;;1.80;1.70;;;;;;;29.98;49.52;97421.00;5083035;28;20601;-70
2023/08/14 08:14:06;;;;;;;2.50;1.83;;;;;;;30.15;49.89;97423.38;5087722;28;20181;-69
2023/08/14 08:16:34;;;;;;;2.00;1.90;;;;;;;30.09;49.71;97424.47;5087800;28;20564;-70
2023/08/14 08:19:06;;;;;;;2.83;1.87;;;;;;;30.33;49.38;97425.47;5083849;28;20440;-71
2023/08/14 08:21:32;;;;;;;5.20;2.00;;;;;;;30.38;49.02;97421.94;5091737;28;20469;-70
2023/08/14 08:23:58;;;;;;;2.30;2.10;;;;;;;30.53;48.59;97429.19;5090634;28;20494;-71
2023/08/14 08:26:25;;;;;;;5.03;2.07;;;;;;;30.74;48.33;97421.00;5092363;28;20205;-71
2023/08/14 08:28:50;;;;;;;3.50;2.00;;;;;;;30.96;48.10;97426.03;5085767;28;20186;-71
2023/08/14 08:31:16;;;;;;;3.67;2.10;;;;;;;31.17;47.99;97423.19;5091635;28;20416;-71
2023/08/14 08:33:41;;;;;;;2.40;2.20;;;;;;;31.27;46.59;97428.53;5089007;28;20238;-71
2023/08/14 08:36:07;;;;;;;2.67;2.00;;;;;;;31.39;46.98;97439.81;5095430;28;20566;-69
2023/08/14 08:38:32;;;;;;;5.20;2.17;;;;;;;31.16;46.47;97440.53;5090853;28;20276;-71
2023/08/14 08:41:01;;;;;;;3.10;1.87;;;;;;;31.09;46.75;97435.41;5095225;28;20185;-71
2023/08/14 08:43:27;;;;;;;2.83;1.80;;;;;;;31.31;45.75;97439.63;5091948;28;20240;-71
2023/08/14 08:45:55;;;;;;;2.90;2.40;;;;;;;31.36;45.58;97428.75;5091132;28;20433;-68
2023/08/14 08:48:23;;;;;;;3.50;2.20;;;;;;;31.51;45.05;97425.91;5066342;28;20444;-71
2023/08/14 08:50:50;;;;;;;3.33;2.10;;;;;;;31.56;45.38;97427.78;5091410;28;20434;-69
2023/08/14 08:53:18;;;;;;;4.63;2.60;;;;;;;31.81;45.49;97431.38;5091301;28;20408;-71
2023/08/14 08:55:43;;;;;;;2.20;1.97;;;;;;;31.88;45.23;97426.44;5095736;28;20451;-70
2023/08/14 08:58:09;;;;;;;4.20;2.23;;;;;;;32.16;45.39;97424.78;5071453;28;20499;-71
2023/08/14 09:00:34;;;;;;;2.70;2.50;;;;;;;32.32;44.83;97422.72;5091102;28;20182;-70
2023/08/14 09:03:00;;;;;;;3.27;2.40;;;;;;;32.48;45.01;97430.69;5091527;28;20795;-70
2023/08/14 09:05:26;;;;;;;3.20;2.40;;;;;;;32.64;44.65;97434.00;5092584;28;20174;-70
2023/08/14 09:07:51;;;;;;;2.50;2.30;;;;;;;32.85;44.47;97429.16;5091519;28;20205;-70
2023/08/14 09:10:17;;;;;;;3.00;2.30;;;;;;;32.76;43.79;97430.88;5095925;28;20298;-69
2023/08/14 09:12:42;;;;;;;2.93;2.60;;;;;;;32.77;44.11;97432.47;5087875;28;20682;-70
2023/08/14 09:15:09;;;;;;;3.53;2.90;;;;;;;33.05;44.30;97432.66;5090675;28;20662;-69
2023/08/14 09:17:35;;;;;;;2.73;2.03;;;;;;;33.08;42.68;97429.34;5089036;28;20213;-69
2023/08/14 09:20:02;;;;;;;8.43;2.80;;;;;;;33.28;43.22;97432.84;5095735;28;20422;-70
2023/08/14 09:22:28;;;;;;;5.30;2.50;;;;;;;33.15;42.97;97431.69;5094928;28;20940;-70
2023/08/14 09:24:55;;;;;;;2.50;2.30;;;;;;;33.38;43.09;97436.25;5087304;28;20447;-70
2023/08/14 09:27:22;;;;;;;7.27;2.53;;;;;;;33.60;43.41;97440.25;5088290;28;20581;-70
2023/08/14 09:29:50;;;;;;;2.63;2.40;;;;;;;33.79;42.73;97429.31;5089684;28;20482;-69
2023/08/14 09:32:23;;;;;;;4.70;2.80;;;;;;;33.55;42.41;97429.47;5088391;28;20466;-69
2023/08/14 09:34:50;;;;;;;7.53;2.70;;;;;;;33.22;42.91;97435.66;5088944;28;20436;-71
2023/08/14 09:37:17;;;;;;;4.60;2.33;;;;;;;33.60;42.94;97420.44;5091815;28;20455;-71
2023/08/14 09:39:42;;;;;;;3.40;2.70;;;;;;;33.79;41.96;97418.44;5089911;28;20431;-70
2023/08/14 09:42:09;;;;;;;3.50;2.50;;;;;;;33.78;42.55;97416.03;5087248;28;20993;-67
2023/08/14 09:44:34;;;;;;;2.80;2.60;;;;;;;34.01;42.25;97408.84;5088331;28;20315;-69
2023/08/14 09:47:00;;;;;;;4.17;2.53;;;;;;;34.10;41.12;97403.50;5087883;28;20487;-68
2023/08/14 09:49:27;;;;;;;4.90;2.80;;;;;;;34.36;41.17;97408.44;5087632;28;20181;-70
2023/08/14 09:51:56;;;;;;;2.67;2.27;;;;;;;34.47;40.01;97403.63;5090955;28;20197;-69
2023/08/14 09:54:30;;;;;;;2.67;2.47;;;;;;;34.71;40.16;97406.91;5087644;28;20916;-69
2023/08/14 09:56:56;;;;;;;3.30;2.50;;;;;;;35.09;39.89;97403.09;5088546;28;20459;-71
2023/08/14 09:59:22;;;;;;;4.50;2.60;;;;;;;35.40;39.82;97410.53;5089920;28;20958;-71
2023/08/14 10:01:49;;;;;;;2.77;2.57;;;;;;;35.16;38.50;97417.09;5089231;28;20423;-70
2023/08/14 10:04:17;;;;;;;3.10;2.40;;;;;;;34.99;37.69;97408.75;5088449;28;20236;-69
2023/08/14 10:06:42;;;;;;;5.20;2.70;;;;;;;34.65;38.41;97412.75;5085958;28;20451;-69
2023/08/14 10:09:08;;;;;;;2.87;2.57;;;;;;;34.63;38.12;97402.19;5088844;28;20457;-70
2023/08/14 10:11:34;;;;;;;3.53;2.73;;;;;;;34.66;38.42;97409.72;5091021;28;20181;-69
2023/08/14 10:14:02;;;;;;;4.80;3.23;;;;;;;34.02;39.82;97407.75;5082991;28;20185;-71
2023/08/14 10:16:31;;;;;;;3.00;2.70;;;;;;;34.37;39.71;97408.16;5089268;28;20444;-70
2023/08/14 10:18:57;;;;;;;6.20;2.80;;;;;;;34.57;39.75;97395.25;5094132;28;20497;-71
2023/08/14 10:21:28;;;;;;;3.40;2.80;;;;;;;34.48;39.15;97391.63;5080442;28;20427;-70
2023/08/14 10:23:54;;;;;;;7.33;3.30;;;;;;;34.33;39.23;97398.97;5091565;28;20978;-71
2023/08/14 10:26:20;;;;;;;3.53;2.40;;;;;;;34.34;39.45;97399.78;5089015;28;20808;-71
2023/08/14 10:28:46;;;;;;;3.17;2.90;;;;;;;34.22;39.15;97397.56;5086914;28;20442;-70
2023/08/14 10:31:12;;;;;;;3.27;2.47;;;;;;;34.55;39.38;97395.56;5083528;28;20516;-71
2023/08/14 10:33:38;;;;;;;2.73;2.53;;;;;;;34.87;39.16;97395.69;5082699;28;20585;-71
2023/08/14 10:36:03;;;;;;;3.27;2.47;;;;;;;35.25;38.62;97383.66;5088991;28;20201;-71
2023/08/14 10:38:40;;;;;;;4.43;2.90;;;;;;;35.65;39.07;97391.94;5077471;28;20205;-71
2023/08/14 10:41:07;;;;;;;3.70;2.80;;;;;;;35.96;37.62;97391.97;5088363;28;20245;-72
2023/08/14 10:43:32;;;;;;;2.73;2.53;;;;;;;36.02;36.52;97389.88;5081274;28;20546;-70
2023/08/14 10:45:58;;;;;;;2.50;2.20;;;;;;;36.18;36.51;97397.66;5081036;28;20423;-71
2023/08/14 10:48:24;;;;;;;5.03;3.13;;;;;;;36.21;36.52;97392.38;5088985;28;20582;-69
2023/08/14 10:50:57;;;;;;;2.90;2.57;;;;;;;36.17;36.12;97385.91;5081553;28;20192;-69
2023/08/14 10:53:23;;;;;;;4.53;3.20;;;;;;;36.02;36.15;97389.09;5087155;28;20189;-70
2023/08/14 10:55:48;;;;;;;2.67;2.47;;;;;;;36.01;36.57;97398.41;5083736;28;20550;-70
2023/08/14 10:58:31;;;;;;;4.03;2.67;;;;;;;35.84;36.90;97389.00;5086826;28;20196;-69
2023/08/14 11:01:04;;;;;;;3.50;2.80;;;;;;;35.60;37.01;97395.59;5081545;28;20558;-69
2023/08/14 11:03:32;;;;;;;2.70;2.50;;;;;;;35.55;37.60;97398.44;5086925;28;20462;-70
2023/08/14 11:05:58;;;;;;;3.13;2.63;;;;;;;35.37;37.90;97390.16;5081318;28;20484;-69
2023/08/14 11:08:23;;;;;;;7.00;2.90;;;;;;;35.22;38.22;97393.25;5087096;28;20427;-70
2023/08/14 11:10:49;;;;;;;3.30;2.63;;;;;;;35.20;38.84;97387.31;5084302;28;20181;-69
2023/08/14 11:13:15;;;;;;;3.87;2.77;;;;;;;35.15;39.03;97387.47;5090007;28;20189;-69
2023/08/14 11:15:42;;;;;;;3.43;3.13;;;;;;;35.12;38.86;97390.78;5088276;28;20451;-69
2023/08/14 11:18:12;;;;;;;7.50;3.00;;;;;;;34.95;39.47;97380.56;5086221;28;20442;-70
2023/08/14 11:20:41;;;;;;;4.00;2.60;;;;;;;34.93;39.53;97386.31;5087067;28;20451;-71
2023/08/14 11:23:07;;;;;;;2.90;2.63;;;;;;;35.04;39.23;97382.22;5084160;28;20427;-69
2023/08/14 11:25:33;;;;;;;5.57;3.33;;;;;;;34.98;39.10;97383.47;5092577;28;20423;-70
2023/08/14 11:27:59;;;;;;;3.70;2.70;;;;;;;34.95;39.59;97386.00;5089257;28;20212;-69
2023/08/14 11:30:32;;;;;;;5.00;3.10;;;;;;;35.00;39.30;97381.25;5092395;28;20433;-71